createdAt,value
2022-10-18T00:02:28.783Z,101877.47
2022-10-18T00:05:30.633Z,101877.47
2022-10-18T00:38:58.646Z,101865.91
2022-10-18T00:42:00.504Z,101855.75
2022-10-18T00:45:15.878Z,101858.84
2022-10-18T00:48:17.761Z,101855.47
2022-10-18T00:51:20.178Z,101846.91
2022-10-18T00:54:21.977Z,101853.31
2022-10-18T00:57:24.029Z,101854.34
2022-10-18T01:00:25.935Z,101857.13
2022-10-18T01:03:27.727Z,101848.22
2022-10-18T01:06:29.643Z,101849.59
2022-10-18T01:09:46.087Z,101845.53
2022-10-18T01:12:57.074Z,101842.88
2022-10-18T01:15:59.475Z,101842.78
2022-10-18T01:19:24.617Z,101831.94
2022-10-18T01:22:46.680Z,101832.59
2022-10-18T01:26:02.730Z,101824.72
2022-10-18T01:29:22.607Z,101823.72
2022-10-18T01:32:25.419Z,101807.75
2022-10-18T01:35:30.336Z,101820.25
2022-10-18T01:38:32.338Z,101817.56
2022-10-18T01:41:34.376Z,101817.88
2022-10-18T01:44:36.219Z,101808.34
2022-10-18T01:47:38.030Z,101810.91
2022-10-18T01:50:39.955Z,101800.06
2022-10-18T01:53:42.046Z,101802.31
2022-10-18T01:56:51.194Z,101800.47
2022-10-18T02:00:00.781Z,101801.25
2022-10-18T02:03:07.243Z,101800.59
2022-10-18T02:06:27.488Z,101796.28
2022-10-18T02:09:39.364Z,101795.41
2022-10-18T02:12:41.990Z,101790.41
2022-10-18T02:15:44.729Z,101783.28
2022-10-18T02:18:57.765Z,101785.84
2022-10-18T02:21:59.776Z,101792.06
2022-10-18T02:25:02.631Z,101796.25
2022-10-18T02:28:04.868Z,101796.50
2022-10-18T02:31:09.594Z,101791.75
2022-10-18T02:34:19.948Z,101798.78
2022-10-18T02:37:21.880Z,101794.19
2022-10-18T02:40:23.710Z,101790.56
2022-10-18T02:43:25.554Z,101792.69
2022-10-18T02:49:34.121Z,101791.38
2022-10-18T02:52:35.912Z,101793.84
2022-10-18T02:55:37.822Z,101794.41
2022-10-18T02:58:39.719Z,101790.34
2022-10-18T03:01:41.682Z,101793.03
2022-10-18T03:04:43.520Z,101788.69
2022-10-18T03:07:45.336Z,101792.16
2022-10-18T03:10:47.137Z,101785.50
2022-10-18T03:13:50.591Z,101797.34
2022-10-18T03:16:52.395Z,101797.06
2022-10-18T03:19:54.324Z,101807.22
2022-10-18T03:22:56.141Z,101807.97
2022-10-18T03:25:57.941Z,101816.50
2022-10-18T03:28:59.810Z,101814.78
2022-10-18T03:32:01.652Z,101815.12
2022-10-18T03:35:03.939Z,101810.78
2022-10-18T03:38:05.903Z,101813.56
2022-10-18T03:41:07.743Z,101807.22
2022-10-18T03:44:09.565Z,101817.00
2022-10-18T03:47:11.997Z,101816.56
2022-10-18T03:50:13.783Z,101806.34
2022-10-18T03:53:15.623Z,101807.50
2022-10-18T03:56:17.495Z,101817.84
2022-10-18T03:59:19.378Z,101813.19
2022-10-18T04:02:21.191Z,101815.97
2022-10-18T04:05:24.176Z,101812.06
2022-10-18T04:08:26.198Z,101812.75
2022-10-18T04:11:28.008Z,101809.22
2022-10-18T04:14:29.816Z,101808.16
2022-10-18T04:17:31.888Z,101802.84
2022-10-18T04:20:33.909Z,101804.47
2022-10-18T04:23:38.676Z,101801.78
2022-10-18T04:26:40.842Z,101796.75
2022-10-18T04:29:42.712Z,101798.25
2022-10-18T04:32:44.548Z,101791.75
2022-10-18T04:35:46.477Z,101796.19
2022-10-18T04:38:48.287Z,101798.09
2022-10-18T04:41:50.104Z,101792.28
2022-10-18T04:44:52.026Z,101793.75
2022-10-18T04:47:53.924Z,101791.16
2022-10-18T04:50:55.853Z,101779.03
2022-10-18T04:53:57.651Z,101785.25
2022-10-18T04:56:59.489Z,101774.88
2022-10-18T05:00:01.402Z,101772.41
2022-10-18T05:03:03.279Z,101774.00
2022-10-18T05:06:05.639Z,101769.91
2022-10-18T05:09:07.673Z,101763.94
2022-10-18T05:12:09.480Z,101779.03
2022-10-18T05:15:11.467Z,101770.88
2022-10-18T05:18:13.367Z,101782.00
2022-10-18T05:21:15.831Z,101777.38
2022-10-18T05:24:17.709Z,101784.09
2022-10-18T05:27:19.553Z,101787.19
2022-10-18T05:30:21.742Z,101786.19
2022-10-18T05:33:23.541Z,101783.53
2022-10-18T05:36:26.194Z,101781.97
2022-10-18T05:39:28.014Z,101784.44
2022-10-18T05:42:30.130Z,101788.00
2022-10-18T05:45:32.206Z,101781.22
2022-10-18T05:48:34.759Z,101781.44
2022-10-18T05:51:36.549Z,101779.44
2022-10-18T05:54:38.470Z,101784.19
2022-10-18T05:57:40.332Z,101774.34
2022-10-18T06:00:42.253Z,101781.97
2022-10-18T06:03:44.093Z,101787.09
2022-10-18T06:06:46.005Z,101780.53
2022-10-18T06:09:48.541Z,101779.22
2022-10-18T06:12:50.353Z,101781.47
2022-10-18T06:15:55.536Z,101779.97
2022-10-18T06:18:57.416Z,101770.34
2022-10-18T06:21:59.255Z,101772.91
2022-10-18T06:25:01.196Z,101788.06
2022-10-18T06:28:05.968Z,101784.03
2022-10-18T06:31:10.735Z,101784.25
2022-10-18T06:34:12.632Z,101792.03
2022-10-18T06:37:14.429Z,101784.75
2022-10-18T06:40:16.467Z,101797.13
2022-10-18T06:43:21.521Z,101788.84
2022-10-18T06:46:23.762Z,101789.50
2022-10-18T06:49:25.738Z,101780.19
2022-10-18T06:52:27.846Z,101766.88
2022-10-18T06:55:32.689Z,101772.94
2022-10-18T06:58:35.519Z,101780.84
2022-10-18T07:01:39.875Z,101787.16
2022-10-18T07:04:42.511Z,101788.03
2022-10-18T07:07:44.627Z,101780.22
2022-10-18T07:10:53.330Z,101787.81
2022-10-18T07:14:00.420Z,101787.66
2022-10-18T07:17:02.244Z,101789.81
2022-10-18T07:20:04.452Z,101795.22
2022-10-18T07:23:08.582Z,101786.97
2022-10-18T07:26:11.998Z,101784.41
2022-10-18T07:29:14.343Z,101774.84
2022-10-18T07:32:16.273Z,101777.00
2022-10-18T07:35:18.150Z,101782.72
2022-10-18T07:38:20.026Z,101778.47
2022-10-18T07:41:22.168Z,101769.97
2022-10-18T07:44:24.147Z,101773.75
2022-10-18T07:47:27.270Z,101783.88
2022-10-18T07:50:29.992Z,101779.50
2022-10-18T07:53:31.986Z,101775.81
2022-10-18T07:56:34.257Z,101773.00
2022-10-18T07:59:37.780Z,101768.53
2022-10-18T08:02:39.656Z,101762.13
2022-10-18T08:05:41.525Z,101747.50
2022-10-18T08:08:43.501Z,101755.03
2022-10-18T08:11:45.452Z,101762.00
2022-10-18T08:14:47.385Z,101753.75
2022-10-18T08:17:49.221Z,101749.25
2022-10-18T08:20:51.066Z,101736.28
2022-10-18T08:23:53.955Z,101745.47
2022-10-18T08:26:55.845Z,101743.72
2022-10-18T08:29:59.925Z,101739.31
2022-10-18T08:33:02.266Z,101725.22
2022-10-18T08:36:07.714Z,101727.06
2022-10-18T08:39:09.576Z,101729.66
2022-10-18T08:42:20.237Z,101719.09
2022-10-18T08:45:37.556Z,101713.78
2022-10-18T08:48:48.046Z,101707.66
2022-10-18T08:51:50.036Z,101705.00
2022-10-18T08:55:10.409Z,101700.72
2022-10-18T08:58:18.269Z,101692.94
2022-10-18T09:01:38.909Z,101692.00
2022-10-18T09:04:40.886Z,101690.53
2022-10-18T09:07:44.094Z,101684.44
2022-10-18T09:11:21.822Z,101681.34
2022-10-18T09:14:23.981Z,101676.31
2022-10-18T09:17:48.283Z,101675.59
2022-10-18T09:21:14.011Z,101666.72
2022-10-18T09:24:19.544Z,101671.13
2022-10-18T09:27:22.904Z,101659.09
2022-10-18T09:30:33.674Z,101665.56
2022-10-18T09:33:39.367Z,101660.09
2022-10-18T09:36:41.473Z,101655.13
2022-10-18T09:39:43.332Z,101653.41
2022-10-18T09:42:51.876Z,101642.19
2022-10-18T09:45:53.924Z,101641.53
2022-10-18T09:49:00.763Z,101639.00
2022-10-18T09:52:04.258Z,101633.78
2022-10-18T09:55:09.116Z,101628.78
2022-10-18T09:58:10.991Z,101627.28
2022-10-18T10:01:13.749Z,101629.66
2022-10-18T10:04:15.548Z,101624.41
2022-10-18T10:07:21.776Z,101615.59
2022-10-18T10:10:24.368Z,101600.75
2022-10-18T10:13:28.044Z,101599.72
2022-10-18T10:16:29.967Z,101594.66
2022-10-18T10:19:36.427Z,101586.84
2022-10-18T10:22:39.465Z,101590.00
2022-10-18T10:25:41.306Z,101584.41
2022-10-18T10:28:46.502Z,101576.37
2022-10-18T10:31:48.585Z,101577.34
2022-10-18T10:34:50.663Z,101570.94
2022-10-18T10:37:53.380Z,101559.06
2022-10-18T10:40:55.979Z,101559.91
2022-10-18T10:43:57.828Z,101550.44
2022-10-18T10:46:59.965Z,101550.66
2022-10-18T10:50:09.033Z,101542.69
2022-10-18T10:53:43.433Z,101541.81
2022-10-18T10:57:04.095Z,101537.53
2022-10-18T11:00:06.281Z,101539.53
2022-10-18T11:03:28.052Z,101527.75
2022-10-18T11:06:43.290Z,101531.16
2022-10-18T11:09:48.044Z,101521.81
2022-10-18T11:12:54.247Z,101520.75
2022-10-18T11:16:00.509Z,101515.81
2022-10-18T11:19:10.787Z,101505.19
2022-10-18T11:22:17.202Z,101501.00
2022-10-18T11:25:19.039Z,101488.38
2022-10-18T11:28:34.843Z,101486.72
2022-10-18T11:31:42.256Z,101486.03
2022-10-18T11:35:03.033Z,101477.56
2022-10-18T11:38:36.934Z,101478.66
2022-10-18T11:41:42.864Z,101470.00
2022-10-18T11:44:50.526Z,101473.91
2022-10-18T11:47:55.973Z,101473.91
2022-10-18T11:51:13.306Z,101468.88
2022-10-18T11:54:33.672Z,101460.75
2022-10-18T11:57:35.792Z,101443.03
2022-10-18T12:00:41.413Z,101446.19
2022-10-18T12:04:02.457Z,101432.94
2022-10-18T12:07:05.210Z,101428.00
2022-10-18T12:10:07.743Z,101433.09
2022-10-18T12:13:12.356Z,101428.56
2022-10-18T12:16:14.237Z,101421.78
2022-10-18T12:19:26.354Z,101415.88
2022-10-18T12:22:34.257Z,101415.38
2022-10-18T12:25:37.907Z,101406.81
2022-10-18T12:28:46.175Z,101399.44
2022-10-18T12:31:49.152Z,101407.13
2022-10-18T12:34:52.770Z,101399.84
2022-10-18T12:38:13.734Z,101387.97
2022-10-18T12:41:42.120Z,101381.56
2022-10-18T12:44:44.448Z,101376.84
2022-10-18T12:47:46.316Z,101365.75
2022-10-18T12:50:48.269Z,101352.75
2022-10-18T12:53:53.536Z,101359.75
2022-10-18T12:56:55.384Z,101356.69
2022-10-18T12:59:57.550Z,101341.09
2022-10-18T13:03:20.205Z,101342.31
2022-10-18T13:06:22.565Z,101327.06
2022-10-18T13:09:25.181Z,101327.88
2022-10-18T13:12:27.009Z,101311.69
2022-10-18T13:15:48.272Z,101312.22
2022-10-18T13:18:50.150Z,101301.84
2022-10-18T13:22:10.035Z,101304.69
2022-10-18T13:25:26.328Z,101300.66
2022-10-18T13:28:34.337Z,101303.63
2022-10-18T13:31:49.087Z,101299.66
2022-10-18T13:34:51.708Z,101285.38
2022-10-18T13:38:00.002Z,101281.25
2022-10-18T13:41:01.835Z,101298.19
2022-10-18T13:44:11.590Z,101296.66
2022-10-18T13:47:14.335Z,101305.91
2022-10-18T13:50:31.700Z,101311.87
2022-10-18T13:53:39.953Z,101312.75
2022-10-18T13:56:47.889Z,101310.47
2022-10-18T13:59:52.520Z,101306.22
2022-10-18T14:02:59.928Z,101314.09
2022-10-18T14:06:07.211Z,101306.78
2022-10-18T14:12:44.718Z,101300.03
2022-10-18T14:15:47.340Z,101297.44
2022-10-18T14:18:49.473Z,101286.38
2022-10-18T14:21:53.810Z,101283.16
2022-10-18T14:24:56.742Z,101286.06
2022-10-18T14:28:14.978Z,101292.91
2022-10-18T14:31:17.371Z,101282.94
2022-10-18T14:34:19.281Z,101286.31
2022-10-18T14:37:34.701Z,101274.00
2022-10-18T14:40:39.470Z,101268.25
2022-10-18T14:43:41.376Z,101275.00
2022-10-18T14:46:43.973Z,101267.47
2022-10-18T14:49:46.544Z,101259.53
2022-10-18T14:52:48.490Z,101251.56
2022-10-18T14:55:54.111Z,101260.72
2022-10-18T14:59:00.585Z,101254.22
2022-10-18T15:02:05.037Z,101246.34
2022-10-18T15:05:06.968Z,101236.16
2022-10-18T15:08:08.779Z,101239.03
2022-10-18T15:11:14.099Z,101237.97
2022-10-18T15:14:19.727Z,101235.53
2022-10-18T15:17:24.040Z,101239.12
2022-10-18T15:20:31.709Z,101230.59
2022-10-18T15:23:33.552Z,101233.69
2022-10-18T15:26:35.438Z,101225.00
2022-10-18T15:29:38.077Z,101221.88
2022-10-18T15:32:46.437Z,101221.66
2022-10-18T15:35:48.251Z,101225.16
2022-10-18T15:38:50.320Z,101227.63
2022-10-18T15:41:56.426Z,101226.34
2022-10-18T15:44:58.295Z,101218.56
2022-10-18T15:48:00.136Z,101222.69
2022-10-18T15:51:06.410Z,101223.66
2022-10-18T15:54:10.655Z,101220.44
2022-10-18T15:57:12.518Z,101211.97
2022-10-18T16:00:17.222Z,101212.94
2022-10-18T16:03:19.477Z,101216.87
2022-10-18T16:06:21.311Z,101217.31
2022-10-18T16:09:23.867Z,101212.00
2022-10-18T16:12:26.095Z,101203.81
2022-10-18T16:15:28.206Z,101205.84
2022-10-18T16:18:30.041Z,101202.72
2022-10-18T16:21:35.209Z,101213.31
2022-10-18T16:24:37.102Z,101210.47
2022-10-18T16:27:39.016Z,101217.81
2022-10-18T16:30:41.490Z,101213.72
2022-10-18T16:33:43.646Z,101217.50
2022-10-18T16:36:45.528Z,101220.16
2022-10-18T16:39:47.386Z,101223.44
2022-10-18T16:42:49.206Z,101227.84
2022-10-18T16:45:51.633Z,101238.59
2022-10-18T16:48:53.724Z,101240.53
2022-10-18T16:51:55.707Z,101233.25
2022-10-18T16:54:57.855Z,101230.00
2022-10-18T16:57:59.829Z,101229.00
2022-10-18T17:01:04.050Z,101230.88
2022-10-18T17:04:08.531Z,101235.19
2022-10-18T17:07:12.870Z,101229.56
2022-10-18T17:10:15.561Z,101232.25
2022-10-18T17:13:17.349Z,101227.25
2022-10-18T17:16:19.536Z,101223.72
2022-10-18T17:19:21.377Z,101233.37
2022-10-18T17:22:23.360Z,101229.44
2022-10-18T17:25:25.296Z,101241.81
2022-10-18T17:28:27.193Z,101234.13
2022-10-18T17:31:29.402Z,101247.56
2022-10-18T17:34:31.292Z,101247.91
2022-10-18T17:37:33.537Z,101241.81
2022-10-18T17:40:35.970Z,101237.53
2022-10-18T17:46:45.249Z,101224.25
2022-10-18T17:49:47.815Z,101221.38
2022-10-18T17:52:50.027Z,101214.62
2022-10-18T17:55:59.018Z,101222.88
2022-10-18T17:59:03.592Z,101222.28
2022-10-18T18:02:05.446Z,101221.03
2022-10-18T18:05:07.664Z,101214.97
2022-10-18T18:08:09.508Z,101217.38
2022-10-18T18:11:11.520Z,101227.81
2022-10-18T18:14:13.475Z,101226.69
2022-10-18T18:17:17.021Z,101216.44
2022-10-18T18:20:24.441Z,101218.66
2022-10-18T18:23:26.387Z,101216.69
2022-10-18T18:26:30.723Z,101218.12
2022-10-18T18:29:32.614Z,101218.53
2022-10-18T18:32:34.848Z,101210.59
2022-10-18T18:35:36.830Z,101209.28
2022-10-18T18:38:39.416Z,101204.72
2022-10-18T18:41:41.227Z,101209.91
2022-10-18T18:44:46.126Z,101209.69
2022-10-18T18:47:48.097Z,101219.06
2022-10-18T18:50:51.405Z,101208.41
2022-10-18T18:53:53.342Z,101194.22
2022-10-18T18:56:55.216Z,101192.84
2022-10-18T18:59:57.153Z,101199.59
2022-10-18T19:02:59.010Z,101197.91
2022-10-18T19:06:04.937Z,101199.91
2022-10-18T19:09:08.124Z,101193.81
2022-10-18T19:12:10.102Z,101186.72
2022-10-18T19:15:12.139Z,101189.81
2022-10-18T19:18:14.058Z,101187.62
2022-10-18T19:21:15.875Z,101194.38
2022-10-18T19:24:18.133Z,101192.19
2022-10-18T19:27:19.963Z,101182.75
2022-10-18T19:30:21.902Z,101188.03
2022-10-18T19:33:41.183Z,101186.75
2022-10-18T19:36:46.931Z,101181.53
2022-10-18T19:39:48.958Z,101173.88
2022-10-18T19:42:50.911Z,101185.69
2022-10-18T19:45:52.854Z,101186.91
2022-10-18T19:48:54.753Z,101185.69
2022-10-18T19:51:56.833Z,101186.66
2022-10-18T19:54:58.904Z,101186.31
2022-10-18T19:58:00.734Z,101176.56
2022-10-18T20:01:02.761Z,101185.28
2022-10-18T20:04:05.077Z,101193.97
2022-10-18T20:07:07.170Z,101186.00
2022-10-18T20:10:09.759Z,101161.81
2022-10-18T20:13:11.620Z,101180.47
2022-10-18T20:16:14.013Z,101164.47
2022-10-18T20:19:15.968Z,101168.84
2022-10-18T20:22:17.875Z,101165.97
2022-10-18T20:25:19.740Z,101161.84
2022-10-18T20:28:22.629Z,101157.19
2022-10-18T20:31:25.494Z,101160.50
2022-10-18T20:34:28.618Z,101161.66
2022-10-18T20:37:30.709Z,101164.91
2022-10-18T20:40:32.655Z,101165.72
2022-10-18T20:43:34.791Z,101156.66
2022-10-18T20:46:36.740Z,101151.87
2022-10-18T20:49:38.578Z,101161.63
2022-10-18T20:52:40.398Z,101163.00
2022-10-18T20:55:43.616Z,101163.78
2022-10-18T20:58:46.019Z,101164.16
2022-10-18T21:01:47.940Z,101162.84
2022-10-18T21:04:49.807Z,101150.09
2022-10-18T21:07:51.685Z,101145.63
2022-10-18T21:10:53.516Z,101143.00
2022-10-18T21:14:00.193Z,101138.19
2022-10-18T21:17:02.047Z,101131.87
2022-10-18T21:20:04.195Z,101134.56
2022-10-18T21:23:05.998Z,101136.94
2022-10-18T21:26:08.341Z,101136.00
2022-10-18T21:29:11.147Z,101143.69
2022-10-18T21:32:13.044Z,101140.06
2022-10-18T21:35:14.892Z,101148.91
2022-10-18T21:38:16.708Z,101137.91
2022-10-18T21:41:19.408Z,101126.72
2022-10-18T21:44:21.451Z,101128.69
2022-10-18T21:47:23.375Z,101121.37
2022-10-18T21:50:25.323Z,101121.13
2022-10-18T21:53:27.137Z,101108.13
2022-10-18T21:56:30.139Z,101107.78
2022-10-18T21:59:32.015Z,101111.09
2022-10-18T22:02:34.131Z,101100.50
2022-10-18T22:05:36.330Z,101094.59
2022-10-18T22:08:38.274Z,101105.94
2022-10-18T22:11:44.638Z,101094.13
2022-10-18T22:14:46.505Z,101087.13
2022-10-18T22:17:48.360Z,101093.06
2022-10-18T22:20:56.642Z,101086.38
2022-10-18T22:23:58.446Z,101100.69
2022-10-18T22:27:00.230Z,101092.06
2022-10-18T22:30:02.157Z,101078.59
2022-10-18T22:33:04.246Z,101074.59
2022-10-18T22:36:06.074Z,101080.75
2022-10-18T22:39:08.029Z,101082.22
2022-10-18T22:42:09.888Z,101077.25
2022-10-18T22:45:11.794Z,101069.28
2022-10-18T22:48:13.662Z,101069.75
2022-10-18T22:51:15.749Z,101066.53
2022-10-18T22:54:17.620Z,101078.66
2022-10-18T22:57:19.435Z,101085.41
2022-10-18T23:00:21.236Z,101063.72
2022-10-18T23:03:23.133Z,101080.97
2022-10-18T23:06:25.859Z,101081.53
2022-10-18T23:09:27.711Z,101073.78
2022-10-18T23:12:29.754Z,101080.09
2022-10-18T23:15:33.648Z,101070.72
2022-10-18T23:18:35.808Z,101064.72
2022-10-18T23:21:37.658Z,101057.22
2022-10-18T23:24:39.556Z,101055.13
2022-10-18T23:30:43.413Z,101061.19
2022-10-18T23:33:46.114Z,101058.16
2022-10-18T23:36:47.932Z,101051.81
2022-10-18T23:39:49.760Z,101064.66
2022-10-18T23:42:51.668Z,101061.81
2022-10-18T23:45:53.462Z,101051.34
2022-10-18T23:48:55.433Z,101055.91
2022-10-18T23:51:57.296Z,101046.22
2022-10-18T23:54:59.239Z,101045.53
2022-10-18T23:58:01.201Z,101053.87
